Date,TemperatureHighF,TemperatureAvgF,TemperatureLowF,DewpointHighF,DewpointAvgF,DewpointLowF,HumidityHigh,HumidityAvg,HumidityLow,PressureMaxIn,PressureMinIn,WindSpeedMaxMPH,WindSpeedAvgMPH,GustSpeedMaxMPH,PrecipitationSumIn
2013-7-1,69,64,61,64,60,55,95,85,78,29.98,29.85,6,1,15,0.59
2013-7-2,75,65,60,69,63,57,96,92,80,29.99,29.94,5,1,11,0.33
2013-7-3,83,73,65,69,66,64,99,82,58,30.05,29.97,3,1,9,0.27
2013-7-4,81,73,65,70,67,64,96,83,59,30.10,30.02,2,0,7,0.01
2013-7-5,84,75,67,70,68,66,97,82,59,30.07,30.00,3,1,8,0.00
2013-7-6,77,73,68,71,69,67,96,89,77,30.06,29.96,2,0,7,0.00
2013-7-7,81,72,67,71,68,65,96,88,66,30.03,29.96,5,1,10,0.05
2013-7-8,83,75,69,74,70,65,96,87,71,30.02,29.93,5,1,14,0.18
2013-7-9,88,79,73,78,74,71,94,86,67,29.96,29.86,4,1,13,0.18
2013-7-10,87,76,66,78,68,-100,93,81,66,29.91,29.72,13,3,20,0.02
2013-7-11,81,70,60,63,59,56,93,71,44,30.02,29.91,3,1,9,0.02
2013-7-12,82,71,60,64,60,57,93,71,47,30.10,29.98,5,1,13,0.00
2013-7-13,86,74,59,69,65,57,96,73,53,30.13,30.06,6,2,12,0.00
2013-7-14,91,78,65,75,70,64,96,77,53,30.17,30.12,3,1,10,0.00
2013-7-15,93,82,72,75,73,70,96,76,51,30.24,30.17,3,1,8,0.00
2013-7-16,92,84,74,75,73,71,91,71,52,30.27,30.19,4,1,9,0.00
2013-7-17,94,83,73,75,73,70,91,73,50,30.27,30.11,7,2,10,0.00
2013-7-18,94,84,75,77,74,72,91,72,51,30.13,29.94,4,1,11,0.00
2013-7-19,93,84,76,76,74,72,88,72,53,29.95,29.74,8,3,18,0.00
2013-7-20,86,79,71,75,71,-100,98,79,58,29.85,29.70,13,2,26,0.86
2013-7-21,88,77,67,71,68,65,94,75,50,29.93,29.83,3,0,9,0.01
2013-7-22,81,73,66,70,68,64,97,85,67,29.86,29.72,2,0,7,0.21
2013-7-23,86,74,62,71,67,57,95,79,56,29.81,29.67,12,4,21,0.01
2013-7-24,75,65,52,58,54,49,93,69,48,30.00,29.81,5,1,13,0.00
2013-7-25,78,66,53,58,55,51,96,69,45,30.07,29.99,5,0,9,0.00
2013-7-26,81,70,58,65,59,54,87,68,47,30.06,29.87,3,0,11,0.00
2013-7-27,81,69,56,67,61,53,92,78,47,29.88,29.72,7,2,17,0.06
2013-7-28,70,61,52,54,52,49,91,74,52,29.99,29.85,8,2,16,0.02
2013-7-29,74,64,53,60,55,49,87,73,57,30.14,29.98,9,2,15,0.00
2013-7-30,80,69,54,64,59,52,96,73,51,30.19,30.08,3,0,7,0.00
2013-7-31,75,70,66,69,66,62,98,87,72,30.08,29.88,3,1,9,0.04